Shanghai Dawn — 3FMN2 — position and weather

sailwx.info

Track history (hours):
 
Tides and Currents Weather Stations Pressure Air Temp Water Temp Dewpoint Dewpoint Depression Visibility Wind Speed Wind Dir Waves Ship Positions

Shanghai Dawn

Last reported at 2017-Jun-17 13:01 UTC. Time now 2017-Jun-23 11:57 UTC.
Position N 01°15' E 104°06'.

Length 246 m; draft 12.8 m.

Type: Tanker. MMSI: 356075000.

Date/timePositionNaut miles runAvg speedWind from/ knotsBaromVisibWave heightAir tempDewpointWater temp
2017-Jun-17 13:01N 01°15' E 104°06'1 9.7
2017-Jun-17 12:56N 01°15' E 104°05'511.5
2017-Jun-17 12:30N 01°14' E 104°01'612.0
2017-Jun-17 12:00N 01°12' E 103°55'511.0
2017-Jun-17 11:30N 01°10' E 103°50'510.7
2017-Jun-17 11:00N 01°07' E 103°45'611.2
2017-Jun-17 10:30N 01°04' E 103°41'510.6
2017-Jun-17 10:00N 01°04' E 103°36'611.1
2017-Jun-17 09:30N 01°07' E 103°31'611.7
2017-Jun-17 09:00N 01°10' E 103°26'611.7
2017-Jun-17 08:30N 01°14' E 103°22'  
Track history (hours):
 
Tides and Currents Weather Stations Pressure Air Temp Water Temp Dewpoint Dewpoint Depression Visibility Wind Speed Wind Dir Waves Ship Positions

Shanghai Dawn

Last reported at 2017-Jun-17 13:01 UTC. Time now 2017-Jun-23 11:57 UTC.
Position N 01°15' E 104°06'.

Length 246 m; draft 12.8 m.

Type: Tanker. MMSI: 356075000.

Date/timePositionNaut miles runAvg speedWind from/ knotsBaromVisibWave heightAir tempDewpointWater temp
2017-Jun-17 13:01N 01°15' E 104°06'1 9.7
2017-Jun-17 12:56N 01°15' E 104°05'511.5
2017-Jun-17 12:30N 01°14' E 104°01'612.0
2017-Jun-17 12:00N 01°12' E 103°55'511.0
2017-Jun-17 11:30N 01°10' E 103°50'510.7
2017-Jun-17 11:00N 01°07' E 103°45'611.2
2017-Jun-17 10:30N 01°04' E 103°41'510.6
2017-Jun-17 10:00N 01°04' E 103°36'611.1
2017-Jun-17 09:30N 01°07' E 103°31'611.7
2017-Jun-17 09:00N 01°10' E 103°26'611.7
2017-Jun-17 08:30N 01°14' E 103°22'  

Dump ship's entire track history